createdAt,value
2023-08-23T00:00:08.254Z,72.78
2023-08-23T00:02:34.919Z,72.66
2023-08-23T00:05:01.490Z,73.35
2023-08-23T00:07:28.446Z,73.62
2023-08-23T00:09:55.092Z,72.72
2023-08-23T00:12:21.606Z,72.48
2023-08-23T00:14:48.103Z,72.05
2023-08-23T00:17:14.585Z,72.63
2023-08-23T00:19:41.147Z,73.09
2023-08-23T00:22:07.733Z,72.63
2023-08-23T00:24:34.232Z,72.40
2023-08-23T00:27:00.756Z,71.72
2023-08-23T00:29:27.258Z,71.45
2023-08-23T00:31:53.724Z,71.71
2023-08-23T00:34:20.203Z,72.25
2023-08-23T00:36:47.923Z,71.62
2023-08-23T00:39:14.537Z,71.48
2023-08-23T00:41:41.271Z,71.67
2023-08-23T00:44:07.895Z,71.77
2023-08-23T00:46:35.084Z,71.64
2023-08-23T00:49:01.695Z,72.08
2023-08-23T00:51:28.315Z,72.66
2023-08-23T00:53:54.978Z,73.09
2023-08-23T00:56:21.576Z,73.17
2023-08-23T00:58:48.331Z,72.88
2023-08-23T01:01:14.824Z,72.86
2023-08-23T01:03:41.997Z,72.64
2023-08-23T01:06:17.741Z,72.51
2023-08-23T01:08:54.541Z,72.45
2023-08-23T01:11:39.134Z,72.11
2023-08-23T01:14:29.471Z,72.09
2023-08-23T01:16:59.160Z,72.02
2023-08-23T01:19:46.623Z,72.07
2023-08-23T01:22:25.211Z,72.27
2023-08-23T01:24:52.668Z,72.30
2023-08-23T01:27:19.866Z,71.98
2023-08-23T01:29:47.426Z,71.99
2023-08-23T01:32:36.085Z,72.12
2023-08-23T01:35:13.052Z,72.89
2023-08-23T01:37:41.434Z,72.88
2023-08-23T01:40:11.099Z,72.79
2023-08-23T01:42:39.735Z,72.59
2023-08-23T01:45:07.157Z,72.82
2023-08-23T01:47:33.698Z,72.89
2023-08-23T01:50:00.297Z,72.84
2023-08-23T01:52:26.858Z,72.86
2023-08-23T01:54:53.325Z,72.80
2023-08-23T01:57:19.791Z,72.26
2023-08-23T01:59:48.342Z,72.33
2023-08-23T02:02:14.900Z,72.72
2023-08-23T02:04:41.584Z,72.76
2023-08-23T02:07:08.067Z,72.54
2023-08-23T02:09:34.889Z,72.20
2023-08-23T02:12:01.366Z,72.18
2023-08-23T02:14:27.822Z,71.49
2023-08-23T02:16:54.312Z,71.71
2023-08-23T02:19:20.935Z,71.88
2023-08-23T02:21:47.518Z,72.22
2023-08-23T02:24:14.086Z,72.47
2023-08-23T02:26:40.572Z,72.24
2023-08-23T02:29:07.056Z,72.13
2023-08-23T02:31:33.650Z,72.38
2023-08-23T02:34:00.141Z,72.13
2023-08-23T02:36:26.693Z,72.19
2023-08-23T02:38:55.050Z,72.50
2023-08-23T02:41:21.685Z,72.59
2023-08-23T02:43:48.188Z,71.98
2023-08-23T02:46:14.775Z,72.04
2023-08-23T02:48:41.283Z,71.46
2023-08-23T02:51:08.100Z,71.80
2023-08-23T02:53:34.658Z,72.62
2023-08-23T02:56:01.180Z,72.54
2023-08-23T02:58:27.695Z,72.78
2023-08-23T03:00:54.218Z,73.12
2023-08-23T03:03:21.228Z,73.56
2023-08-23T03:05:58.159Z,73.85
2023-08-23T03:08:25.776Z,73.99
2023-08-23T03:10:52.661Z,74.30
2023-08-23T03:13:19.195Z,74.28
2023-08-23T03:15:54.458Z,74.06
2023-08-23T03:18:20.950Z,74.08
2023-08-23T03:20:49.414Z,73.75
2023-08-23T03:23:16.875Z,74.17
2023-08-23T03:25:45.779Z,74.00
2023-08-23T03:28:14.031Z,73.54
2023-08-23T03:30:41.585Z,73.61
2023-08-23T03:33:08.434Z,73.40
2023-08-23T03:35:35.337Z,73.53
2023-08-23T03:38:01.852Z,73.60
2023-08-23T03:40:28.318Z,73.94
2023-08-23T03:42:54.811Z,74.39
2023-08-23T03:45:21.329Z,74.57
2023-08-23T03:47:48.095Z,74.24
2023-08-23T03:50:14.756Z,73.97
2023-08-23T03:52:41.327Z,73.99
2023-08-23T03:55:08.153Z,74.30
2023-08-23T03:57:34.618Z,74.72
2023-08-23T04:00:01.101Z,75.02
2023-08-23T04:02:27.646Z,75.61
2023-08-23T04:04:54.168Z,75.28
2023-08-23T04:07:20.680Z,75.12
2023-08-23T04:09:47.154Z,74.60
2023-08-23T04:12:13.639Z,74.61
2023-08-23T04:14:40.130Z,74.14
2023-08-23T04:17:06.717Z,74.06
2023-08-23T04:19:33.222Z,74.22
2023-08-23T04:21:59.721Z,74.51
2023-08-23T04:24:26.220Z,74.47
2023-08-23T04:26:52.686Z,74.25
2023-08-23T04:29:19.164Z,73.86
2023-08-23T04:31:45.717Z,73.69
2023-08-23T04:34:12.200Z,74.02
2023-08-23T04:36:39.221Z,73.68
2023-08-23T04:39:05.708Z,72.97
2023-08-23T04:41:32.218Z,73.07
2023-08-23T04:43:58.708Z,72.08
2023-08-23T04:46:25.317Z,71.60
2023-08-23T04:48:51.873Z,71.23
2023-08-23T04:51:18.365Z,71.40
2023-08-23T04:53:44.824Z,71.03
2023-08-23T04:56:11.403Z,69.91
2023-08-23T04:58:37.996Z,69.96
2023-08-23T05:01:07.502Z,69.38
2023-08-23T05:03:35.541Z,69.34
2023-08-23T05:06:02.728Z,68.52
2023-08-23T05:08:30.524Z,68.60
2023-08-23T05:10:57.341Z,68.21
2023-08-23T05:13:24.249Z,68.17
2023-08-23T05:15:58.226Z,67.56
2023-08-23T05:18:25.444Z,67.60
2023-08-23T05:20:56.118Z,67.11
2023-08-23T05:23:23.561Z,67.17
2023-08-23T05:25:52.232Z,67.46
2023-08-23T05:28:20.051Z,67.50
2023-08-23T05:30:47.413Z,67.05
2023-08-23T05:33:14.423Z,66.82
2023-08-23T05:35:42.365Z,66.46
2023-08-23T05:38:11.001Z,67.32
2023-08-23T05:40:38.893Z,66.12
2023-08-23T05:43:06.207Z,66.98
2023-08-23T05:45:32.833Z,67.81
2023-08-23T05:48:00.471Z,68.50
2023-08-23T05:50:27.251Z,68.71
2023-08-23T05:52:53.743Z,68.46
2023-08-23T05:55:20.418Z,68.55
2023-08-23T05:57:47.225Z,68.52
2023-08-23T06:00:15.334Z,67.93
2023-08-23T06:02:42.026Z,66.16
2023-08-23T06:05:08.920Z,66.71
2023-08-23T06:07:35.408Z,65.64
2023-08-23T06:10:02.031Z,65.39
2023-08-23T06:12:28.925Z,65.23
2023-08-23T06:14:56.324Z,63.74
2023-08-23T06:17:22.937Z,63.83
2023-08-23T06:19:49.397Z,64.03
2023-08-23T06:22:15.916Z,63.43
2023-08-23T06:24:42.382Z,61.77
2023-08-23T06:27:11.206Z,60.75
2023-08-23T06:29:42.033Z,59.00
2023-08-23T06:32:09.153Z,59.79
2023-08-23T06:34:36.185Z,61.66
2023-08-23T06:37:03.155Z,59.27
2023-08-23T06:39:34.227Z,59.59
2023-08-23T06:42:01.208Z,59.17
2023-08-23T06:44:27.775Z,59.18
2023-08-23T06:46:54.329Z,58.20
2023-08-23T06:49:20.860Z,58.05
2023-08-23T06:51:47.324Z,57.97
2023-08-23T06:54:13.787Z,58.24
2023-08-23T06:56:40.286Z,59.49
2023-08-23T06:59:06.862Z,58.85
2023-08-23T07:01:33.404Z,59.13
2023-08-23T07:04:00.370Z,58.07
2023-08-23T07:06:26.969Z,58.44
2023-08-23T07:08:53.420Z,58.52
2023-08-23T07:11:19.898Z,58.40
2023-08-23T07:13:46.421Z,58.83
2023-08-23T07:16:12.961Z,57.95
2023-08-23T07:18:39.465Z,58.30
2023-08-23T07:21:05.909Z,58.05
2023-08-23T07:23:32.480Z,57.70
2023-08-23T07:25:59.020Z,57.39
2023-08-23T07:28:28.545Z,56.80
2023-08-23T07:30:58.480Z,57.32
2023-08-23T07:33:26.036Z,58.27
2023-08-23T07:35:59.846Z,58.65
2023-08-23T07:38:27.918Z,59.30
2023-08-23T07:40:58.751Z,58.31
2023-08-23T07:43:25.907Z,58.03
2023-08-23T07:45:56.977Z,58.75
2023-08-23T07:48:24.721Z,57.60
2023-08-23T07:50:58.568Z,59.21
2023-08-23T07:53:25.399Z,59.08
2023-08-23T07:55:51.946Z,58.95
2023-08-23T07:58:18.712Z,59.67
2023-08-23T08:00:45.349Z,58.65
2023-08-23T08:03:12.519Z,59.45
2023-08-23T08:05:39.556Z,58.64
2023-08-23T08:08:09.754Z,58.45
2023-08-23T08:10:36.749Z,58.73
2023-08-23T08:13:03.997Z,58.30
2023-08-23T08:15:31.042Z,56.78
2023-08-23T08:17:57.596Z,56.41
2023-08-23T08:20:27.210Z,55.62
2023-08-23T08:22:53.977Z,55.77
2023-08-23T08:25:21.313Z,54.92
2023-08-23T08:27:48.511Z,55.44
2023-08-23T08:30:15.562Z,56.00
2023-08-23T08:32:42.360Z,55.31
2023-08-23T08:35:09.452Z,54.03
2023-08-23T08:37:36.309Z,55.33
2023-08-23T08:40:03.061Z,55.94
2023-08-23T08:42:30.395Z,57.19
2023-08-23T08:44:57.563Z,55.73
2023-08-23T08:47:25.193Z,54.20
2023-08-23T08:49:52.282Z,55.93
2023-08-23T08:52:20.916Z,56.15
2023-08-23T08:54:49.257Z,56.17
2023-08-23T08:57:16.291Z,54.90
2023-08-23T08:59:43.969Z,56.03
2023-08-23T09:02:13.434Z,54.57
2023-08-23T09:04:40.452Z,55.40
2023-08-23T09:07:07.202Z,55.16
2023-08-23T09:09:34.339Z,54.34
2023-08-23T09:12:00.838Z,55.80
2023-08-23T09:14:29.133Z,56.56
2023-08-23T09:16:56.207Z,54.44
2023-08-23T09:19:23.298Z,55.52
2023-08-23T09:21:50.646Z,55.94
2023-08-23T09:24:18.588Z,55.40
2023-08-23T09:26:46.121Z,55.50
2023-08-23T09:29:13.319Z,54.59
2023-08-23T09:31:42.834Z,53.81
2023-08-23T09:34:15.128Z,53.06
2023-08-23T09:36:41.776Z,53.20
2023-08-23T09:39:10.603Z,55.20
2023-08-23T09:41:55.058Z,53.88
2023-08-23T09:44:24.257Z,53.52
2023-08-23T09:46:53.210Z,51.50
2023-08-23T09:49:21.807Z,52.76
2023-08-23T09:51:51.056Z,52.63
2023-08-23T09:54:51.050Z,51.98
2023-08-23T09:57:27.046Z,52.68
2023-08-23T09:59:54.134Z,50.86
2023-08-23T10:02:20.751Z,50.63
2023-08-23T10:04:47.311Z,51.54
2023-08-23T10:07:16.937Z,51.61
2023-08-23T10:09:44.582Z,51.24
2023-08-23T10:12:12.067Z,51.67
2023-08-23T10:14:42.560Z,50.58
2023-08-23T10:17:10.972Z,48.67
2023-08-23T10:19:38.882Z,51.36
2023-08-23T10:22:05.496Z,49.91
2023-08-23T10:24:32.402Z,49.65
2023-08-23T10:27:09.845Z,50.50
2023-08-23T10:29:39.932Z,50.55
2023-08-23T10:32:09.427Z,50.73
2023-08-23T10:34:39.008Z,50.37
2023-08-23T10:37:20.480Z,50.13
2023-08-23T10:39:56.342Z,50.63
2023-08-23T10:42:23.500Z,48.27
2023-08-23T10:45:06.462Z,47.66
2023-08-23T10:47:36.996Z,47.24
2023-08-23T10:50:05.196Z,48.24
2023-08-23T10:52:31.790Z,46.50
2023-08-23T10:54:58.664Z,47.05
2023-08-23T10:57:25.148Z,47.13
2023-08-23T10:59:51.692Z,46.98
2023-08-23T11:02:18.526Z,46.98
2023-08-23T11:04:45.076Z,46.71
2023-08-23T11:07:12.337Z,46.86
2023-08-23T11:09:38.844Z,47.38
2023-08-23T11:12:05.859Z,46.52
2023-08-23T11:14:32.355Z,46.88
2023-08-23T11:16:59.062Z,47.41
2023-08-23T11:19:25.690Z,46.91
2023-08-23T11:21:52.951Z,47.36
2023-08-23T11:24:19.566Z,47.85
2023-08-23T11:26:46.063Z,47.44
2023-08-23T11:29:12.732Z,48.53
2023-08-23T11:31:39.247Z,45.72
2023-08-23T11:34:07.933Z,46.07
2023-08-23T11:36:35.528Z,46.62
2023-08-23T11:39:04.714Z,46.76
2023-08-23T11:41:35.403Z,47.45
2023-08-23T11:44:05.949Z,47.80
2023-08-23T11:46:35.185Z,47.71
2023-08-23T11:49:10.339Z,47.57
2023-08-23T11:51:40.868Z,46.64
2023-08-23T11:54:07.586Z,48.06
2023-08-23T11:56:34.608Z,48.18
2023-08-23T11:59:01.160Z,48.65
2023-08-23T12:01:28.690Z,48.94
2023-08-23T12:03:55.359Z,48.97
2023-08-23T12:06:22.035Z,49.92
2023-08-23T12:08:48.508Z,50.35
2023-08-23T12:11:15.866Z,49.89
2023-08-23T12:13:42.867Z,50.76
2023-08-23T12:16:09.423Z,49.97
2023-08-23T12:18:37.096Z,50.05
2023-08-23T12:21:03.773Z,49.45
2023-08-23T12:23:30.214Z,49.48
2023-08-23T12:25:56.705Z,49.43
2023-08-23T12:28:23.308Z,51.07
2023-08-23T12:30:49.855Z,49.80
2023-08-23T12:33:16.353Z,50.48
2023-08-23T12:35:43.193Z,51.15
2023-08-23T12:38:09.676Z,50.25
2023-08-23T12:40:36.195Z,50.44
2023-08-23T12:43:03.709Z,49.72
2023-08-23T12:45:30.671Z,50.37
2023-08-23T12:47:59.429Z,49.95
2023-08-23T12:50:26.264Z,49.99
2023-08-23T12:52:52.811Z,49.93
2023-08-23T12:55:19.364Z,51.12
2023-08-23T12:57:46.962Z,51.06
2023-08-23T13:00:28.703Z,49.90
2023-08-23T13:02:56.306Z,51.19
2023-08-23T13:05:22.783Z,49.68
2023-08-23T13:07:49.495Z,49.90
2023-08-23T13:10:17.180Z,49.99
2023-08-23T13:12:43.638Z,49.96
2023-08-23T13:15:10.484Z,49.90
2023-08-23T13:17:37.230Z,50.98
2023-08-23T13:20:06.207Z,49.43
2023-08-23T13:22:32.697Z,49.57
2023-08-23T13:24:59.325Z,50.29
2023-08-23T13:27:25.927Z,48.73
2023-08-23T13:29:52.387Z,49.23
2023-08-23T13:32:27.325Z,49.35
2023-08-23T13:34:54.688Z,48.34
2023-08-23T13:37:21.298Z,47.56
2023-08-23T13:39:47.788Z,48.03
2023-08-23T13:42:14.275Z,48.16
2023-08-23T13:44:41.412Z,48.75
2023-08-23T13:47:07.955Z,48.44
2023-08-23T13:49:34.470Z,48.76
2023-08-23T13:52:00.951Z,48.14
2023-08-23T13:54:27.455Z,46.11
2023-08-23T13:56:53.947Z,46.13
2023-08-23T13:59:20.513Z,45.91
2023-08-23T14:01:47.163Z,46.74
2023-08-23T14:04:14.813Z,47.79
2023-08-23T14:06:41.449Z,47.11
2023-08-23T14:09:09.680Z,46.76
2023-08-23T14:11:37.307Z,47.45
2023-08-23T14:14:05.102Z,47.05
2023-08-23T14:16:31.779Z,45.89
2023-08-23T14:18:58.369Z,46.15
2023-08-23T14:21:24.904Z,45.42
2023-08-23T14:23:51.433Z,45.57
2023-08-23T14:26:17.909Z,45.71
2023-08-23T14:28:45.979Z,43.42
2023-08-23T14:31:13.015Z,44.53
2023-08-23T14:33:39.609Z,44.60
2023-08-23T14:36:06.287Z,45.05
2023-08-23T14:38:32.804Z,45.19
2023-08-23T14:40:59.303Z,44.50
2023-08-23T14:43:25.905Z,42.62
2023-08-23T14:45:53.245Z,41.75
2023-08-23T14:48:19.977Z,41.58
2023-08-23T14:50:46.620Z,41.68
2023-08-23T14:53:13.174Z,42.34
2023-08-23T14:55:39.731Z,43.32
2023-08-23T14:58:06.251Z,43.56
2023-08-23T15:00:34.389Z,43.13
2023-08-23T15:03:01.320Z,41.58
2023-08-23T15:05:27.989Z,43.18
2023-08-23T15:07:54.488Z,43.06
2023-08-23T15:10:21.679Z,42.32
2023-08-23T15:12:48.155Z,44.01
2023-08-23T15:15:17.203Z,45.12
2023-08-23T15:17:44.243Z,45.67
2023-08-23T15:20:11.347Z,44.91
2023-08-23T15:22:37.947Z,45.17
2023-08-23T15:25:04.965Z,45.88
2023-08-23T15:27:42.674Z,43.67
2023-08-23T15:30:14.830Z,43.76
2023-08-23T15:32:41.591Z,43.85
2023-08-23T15:35:08.653Z,44.08
2023-08-23T15:37:35.192Z,46.65
2023-08-23T15:40:01.889Z,44.09
2023-08-23T15:42:28.377Z,44.42
2023-08-23T15:44:54.890Z,44.60
2023-08-23T15:47:21.741Z,45.63
2023-08-23T15:49:48.305Z,46.37
2023-08-23T15:52:14.850Z,46.09
2023-08-23T15:54:42.525Z,46.46
2023-08-23T15:57:09.050Z,47.26
2023-08-23T15:59:36.269Z,48.07
2023-08-23T16:02:04.197Z,48.67
2023-08-23T16:04:30.891Z,48.64
2023-08-23T16:06:58.660Z,49.01
2023-08-23T16:09:26.401Z,49.30
2023-08-23T16:11:53.574Z,49.22
2023-08-23T16:14:20.302Z,48.38
2023-08-23T16:16:46.974Z,49.03
2023-08-23T16:19:13.804Z,50.01
2023-08-23T16:21:41.895Z,49.05
2023-08-23T16:24:08.478Z,48.89
2023-08-23T16:26:35.211Z,49.39
2023-08-23T16:29:01.983Z,49.56
2023-08-23T16:31:28.510Z,48.36
2023-08-23T16:33:55.034Z,49.16
2023-08-23T16:36:21.530Z,49.25
2023-08-23T16:38:49.876Z,49.41
2023-08-23T16:41:16.385Z,49.90
2023-08-23T16:43:42.860Z,49.34
2023-08-23T16:46:09.411Z,51.54
2023-08-23T16:48:36.047Z,50.27
2023-08-23T16:51:04.763Z,51.04
2023-08-23T16:53:31.304Z,51.80
2023-08-23T16:55:57.799Z,51.55
2023-08-23T16:58:24.294Z,51.80
2023-08-23T17:00:50.871Z,52.14
2023-08-23T17:03:17.697Z,52.53
2023-08-23T17:05:44.291Z,52.46
2023-08-23T17:08:10.870Z,52.17
2023-08-23T17:10:37.405Z,52.80
2023-08-23T17:13:04.111Z,53.13
2023-08-23T17:15:30.613Z,53.88
2023-08-23T17:17:57.162Z,53.52
2023-08-23T17:20:23.719Z,54.32
2023-08-23T17:22:52.080Z,54.01
2023-08-23T17:25:20.308Z,54.30
2023-08-23T17:27:46.798Z,54.50
2023-08-23T17:30:14.053Z,54.48
2023-08-23T17:32:40.595Z,54.64
2023-08-23T17:35:08.954Z,54.82
2023-08-23T17:37:35.439Z,54.84
2023-08-23T17:40:02.203Z,55.38
2023-08-23T17:42:28.822Z,55.70
2023-08-23T17:44:55.369Z,56.06
2023-08-23T17:47:24.258Z,56.38
2023-08-23T17:49:50.853Z,56.30
2023-08-23T17:52:17.370Z,56.26
2023-08-23T17:54:43.871Z,56.77
2023-08-23T17:57:10.685Z,56.91
2023-08-23T17:59:37.985Z,57.59
2023-08-23T18:02:04.989Z,58.30
2023-08-23T18:04:32.287Z,58.82
2023-08-23T18:06:58.803Z,59.15
2023-08-23T18:09:25.352Z,59.26
2023-08-23T18:11:51.894Z,59.47
2023-08-23T18:14:18.372Z,59.86
2023-08-23T18:16:44.931Z,59.59
2023-08-23T18:19:11.529Z,59.40
2023-08-23T18:21:38.061Z,59.45
2023-08-23T18:24:04.609Z,60.01
2023-08-23T18:26:32.148Z,60.05
2023-08-23T18:28:58.642Z,60.71
2023-08-23T18:31:25.685Z,60.99
2023-08-23T18:33:52.138Z,61.43
2023-08-23T18:36:18.908Z,61.56
2023-08-23T18:38:45.388Z,61.61
2023-08-23T18:41:11.855Z,61.56
2023-08-23T18:43:38.375Z,61.41
2023-08-23T18:46:04.921Z,61.93
2023-08-23T18:48:31.481Z,61.37
2023-08-23T18:50:59.686Z,61.68
2023-08-23T18:53:27.460Z,61.34
2023-08-23T18:55:54.180Z,61.35
2023-08-23T18:58:20.945Z,61.63
2023-08-23T19:00:48.001Z,61.40
2023-08-23T19:03:17.216Z,61.47
2023-08-23T19:05:44.711Z,62.09
2023-08-23T19:08:11.497Z,62.74
2023-08-23T19:10:39.548Z,63.62
2023-08-23T19:13:06.116Z,63.47
2023-08-23T19:15:34.310Z,63.54
2023-08-23T19:18:01.038Z,64.22
2023-08-23T19:20:27.702Z,63.57
2023-08-23T19:22:54.206Z,63.82
2023-08-23T19:25:20.776Z,64.34
2023-08-23T19:27:48.847Z,64.36
2023-08-23T19:30:16.972Z,64.57
2023-08-23T19:32:43.551Z,64.89
2023-08-23T19:35:10.104Z,64.78
2023-08-23T19:37:37.064Z,64.63
2023-08-23T19:40:07.033Z,64.49
2023-08-23T19:42:34.042Z,64.60
2023-08-23T19:45:03.912Z,64.98
2023-08-23T19:47:30.965Z,65.98
2023-08-23T19:50:02.412Z,64.48
2023-08-23T19:52:29.047Z,64.91
2023-08-23T19:54:55.789Z,65.41
2023-08-23T19:57:32.725Z,63.75
2023-08-23T19:59:59.460Z,63.36
2023-08-23T20:02:26.082Z,63.14
2023-08-23T20:04:52.837Z,62.73
2023-08-23T20:07:22.934Z,63.19
2023-08-23T20:09:49.451Z,62.66
2023-08-23T20:12:15.942Z,62.77
2023-08-23T20:14:42.424Z,62.64
2023-08-23T20:17:08.956Z,62.97
2023-08-23T20:19:35.507Z,62.98
2023-08-23T20:22:01.986Z,63.00
2023-08-23T20:24:28.712Z,62.55
2023-08-23T20:26:55.265Z,62.79
2023-08-23T20:29:21.754Z,63.64
2023-08-23T20:31:48.358Z,63.36
2023-08-23T20:34:14.893Z,63.19
2023-08-23T20:36:41.355Z,63.21
2023-08-23T20:39:07.907Z,63.63
2023-08-23T20:41:34.448Z,63.60
2023-08-23T20:44:00.932Z,64.62
2023-08-23T20:46:27.372Z,64.94
2023-08-23T20:48:53.873Z,64.29
2023-08-23T20:51:20.327Z,64.70
2023-08-23T20:53:46.813Z,64.50
2023-08-23T20:56:16.079Z,64.96
2023-08-23T20:58:42.798Z,65.72
2023-08-23T21:01:09.633Z,65.54
2023-08-23T21:03:37.642Z,65.64
2023-08-23T21:06:04.188Z,65.84
2023-08-23T21:08:31.401Z,66.68
2023-08-23T21:11:01.223Z,66.69
2023-08-23T21:13:29.060Z,66.49
2023-08-23T21:15:56.829Z,66.65
2023-08-23T21:18:23.556Z,66.99
2023-08-23T21:20:50.723Z,67.09
2023-08-23T21:23:17.352Z,67.18
2023-08-23T21:25:43.908Z,67.23
2023-08-23T21:28:10.806Z,67.19
2023-08-23T21:30:37.427Z,67.52
2023-08-23T21:33:04.463Z,67.53
2023-08-23T21:35:31.779Z,67.73
2023-08-23T21:37:59.244Z,67.76
2023-08-23T21:40:25.932Z,68.61
2023-08-23T21:42:52.459Z,69.49
2023-08-23T21:45:18.919Z,69.37
2023-08-23T21:47:46.279Z,69.99
2023-08-23T21:50:12.874Z,69.97
2023-08-23T21:52:39.523Z,71.53
2023-08-23T21:55:07.185Z,71.65
2023-08-23T21:57:34.009Z,71.52
2023-08-23T22:00:00.569Z,71.32
2023-08-23T22:02:27.245Z,71.53
2023-08-23T22:04:53.810Z,70.38
2023-08-23T22:07:20.287Z,69.74
2023-08-23T22:09:46.860Z,70.09
2023-08-23T22:12:13.341Z,70.50
2023-08-23T22:14:40.183Z,71.52
2023-08-23T22:17:06.641Z,70.93
2023-08-23T22:19:33.968Z,71.37
2023-08-23T22:22:00.676Z,71.51
2023-08-23T22:24:27.472Z,71.75
2023-08-23T22:26:54.019Z,71.70
2023-08-23T22:29:21.269Z,72.44
2023-08-23T22:31:47.739Z,72.82
2023-08-23T22:34:14.241Z,73.43
2023-08-23T22:36:40.717Z,73.67
2023-08-23T22:39:07.802Z,74.01
2023-08-23T22:41:34.324Z,74.58
2023-08-23T22:44:00.869Z,74.23
2023-08-23T22:46:32.459Z,74.51
2023-08-23T22:49:00.432Z,74.37
2023-08-23T22:51:27.038Z,74.19
2023-08-23T22:53:55.036Z,74.05
2023-08-23T22:56:21.648Z,74.77
2023-08-23T22:58:48.201Z,74.71
2023-08-23T23:01:15.161Z,74.94
2023-08-23T23:03:41.828Z,75.27
2023-08-23T23:06:08.560Z,75.50
2023-08-23T23:08:36.009Z,76.05
2023-08-23T23:11:05.294Z,76.48
2023-08-23T23:13:32.224Z,76.74
2023-08-23T23:16:06.035Z,76.09
2023-08-23T23:18:36.094Z,76.49
2023-08-23T23:21:04.315Z,76.58
2023-08-23T23:23:31.087Z,77.43
2023-08-23T23:25:57.588Z,77.85
2023-08-23T23:28:24.177Z,77.56
2023-08-23T23:30:50.712Z,78.37
2023-08-23T23:33:17.213Z,78.52
2023-08-23T23:35:44.350Z,78.69
2023-08-23T23:38:10.994Z,78.66
2023-08-23T23:40:41.066Z,78.64
2023-08-23T23:43:07.874Z,78.64
2023-08-23T23:45:41.259Z,78.88
2023-08-23T23:48:08.362Z,78.48
2023-08-23T23:50:35.213Z,78.05
2023-08-23T23:53:02.129Z,78.53
2023-08-23T23:55:33.586Z,78.83
2023-08-23T23:58:00.236Z,78.95
